createdAt,value
2018-02-17T00:02:04.485Z,2.40
2018-02-17T00:04:33.608Z,2.40
2018-02-17T00:07:02.729Z,2.30
2018-02-17T00:09:31.078Z,2.30
2018-02-17T00:12:00.215Z,2.30
2018-02-17T00:14:28.560Z,2.30
2018-02-17T00:16:57.693Z,2.30
2018-02-17T00:19:26.067Z,2.30
2018-02-17T00:21:54.409Z,2.30
2018-02-17T00:24:22.760Z,2.30
2018-02-17T00:26:51.109Z,2.30
2018-02-17T00:29:19.484Z,2.30
2018-02-17T00:31:47.807Z,2.20
2018-02-17T00:34:16.437Z,2.30
2018-02-17T00:36:44.780Z,2.20
2018-02-17T00:39:13.148Z,2.20
2018-02-17T00:41:41.507Z,2.20
2018-02-17T00:44:09.841Z,2.20
2018-02-17T00:46:38.961Z,2.10
2018-02-17T00:49:07.296Z,2.10
2018-02-17T00:51:35.663Z,2.10
2018-02-17T00:54:04.018Z,2.10
2018-02-17T00:56:32.393Z,2.10
2018-02-17T00:59:00.736Z,2.10
2018-02-17T01:01:29.137Z,2.10
2018-02-17T01:03:57.518Z,2.00
2018-02-17T01:06:25.869Z,2.00
2018-02-17T01:08:54.265Z,2.00
2018-02-17T01:11:22.620Z,2.00
2018-02-17T01:16:26.340Z,1.90
2018-02-17T01:18:55.445Z,1.80
2018-02-17T01:21:24.581Z,1.80
2018-02-17T01:23:52.966Z,1.80
2018-02-17T01:26:21.309Z,1.80
2018-02-17T01:28:49.893Z,1.70
2018-02-17T01:31:18.256Z,1.70
2018-02-17T01:33:46.588Z,1.70
2018-02-17T01:36:14.970Z,1.60
2018-02-17T01:38:43.345Z,1.60
2018-02-17T01:41:11.700Z,1.60
2018-02-17T01:43:40.073Z,1.60
2018-02-17T01:46:08.648Z,1.60
2018-02-17T01:48:37.032Z,1.50
2018-02-17T01:51:05.375Z,1.50
2018-02-17T01:53:33.708Z,1.50
2018-02-17T01:56:02.072Z,1.40
2018-02-17T01:58:30.461Z,1.40
2018-02-17T02:00:58.813Z,1.40
2018-02-17T02:03:27.157Z,1.40
2018-02-17T02:05:55.520Z,1.40
2018-02-17T02:08:23.893Z,1.40
2018-02-17T02:10:52.274Z,1.30
2018-02-17T02:13:20.765Z,1.30
2018-02-17T02:15:49.136Z,1.30
2018-02-17T02:18:17.473Z,1.30
2018-02-17T02:20:45.833Z,1.30
2018-02-17T02:23:14.926Z,1.30
2018-02-17T02:25:44.054Z,1.30
2018-02-17T02:28:12.413Z,1.20
2018-02-17T02:30:40.761Z,1.30
2018-02-17T02:33:09.911Z,1.30
2018-02-17T02:35:38.254Z,1.20
2018-02-17T02:38:07.670Z,1.30
2018-02-17T02:40:36.352Z,1.20
2018-02-17T02:43:04.729Z,1.30
2018-02-17T02:45:33.109Z,1.30
2018-02-17T02:48:01.440Z,1.30
2018-02-17T02:50:29.813Z,1.30
2018-02-17T02:52:59.670Z,1.30
2018-02-17T02:55:28.059Z,1.30
2018-02-17T02:57:56.395Z,1.30
2018-02-17T03:00:24.752Z,1.30
2018-02-17T03:02:53.122Z,1.30
2018-02-17T03:05:21.461Z,1.30
2018-02-17T03:07:49.809Z,1.30
2018-02-17T03:10:18.183Z,1.30
2018-02-17T03:12:46.509Z,1.30
2018-02-17T03:15:14.889Z,1.40
2018-02-17T03:17:43.265Z,1.30
2018-02-17T03:20:11.628Z,1.40
2018-02-17T03:22:40.012Z,1.40
2018-02-17T03:25:08.357Z,1.30
2018-02-17T03:27:37.501Z,1.30
2018-02-17T03:30:05.848Z,1.30
2018-02-17T03:32:34.955Z,1.30
2018-02-17T03:35:03.337Z,1.30
2018-02-17T03:37:31.677Z,1.30
2018-02-17T03:40:00.300Z,1.30
2018-02-17T03:42:28.637Z,1.30
2018-02-17T03:44:57.003Z,1.30
2018-02-17T03:47:25.363Z,1.30
2018-02-17T03:49:53.725Z,1.30
2018-02-17T03:52:22.082Z,1.30
2018-02-17T03:54:50.434Z,1.30
2018-02-17T03:57:19.581Z,1.30
2018-02-17T03:59:47.924Z,1.30
2018-02-17T04:02:22.419Z,1.30
2018-02-17T04:04:51.529Z,1.30
2018-02-17T04:07:20.650Z,1.30
2018-02-17T04:09:48.977Z,1.20
2018-02-17T04:12:17.377Z,1.30
2018-02-17T04:14:46.469Z,1.30
2018-02-17T04:17:15.609Z,1.20
2018-02-17T04:19:43.988Z,1.20
2018-02-17T04:22:12.325Z,1.20
2018-02-17T04:24:41.454Z,1.20
2018-02-17T04:27:09.800Z,1.20
2018-02-17T04:29:39.104Z,1.20
2018-02-17T04:32:08.220Z,1.10
2018-02-17T04:34:36.581Z,1.10
2018-02-17T04:37:05.696Z,1.10
2018-02-17T04:53:26.651Z,0.90
2018-02-17T04:56:11.485Z,0.80
2018-02-17T04:58:40.305Z,0.80
2018-02-17T05:01:24.498Z,0.80
2018-02-17T05:03:57.377Z,0.80
2018-02-17T05:06:29.561Z,0.70
2018-02-17T05:09:06.628Z,0.70
2018-02-17T05:11:34.982Z,0.70
2018-02-17T05:14:20.000Z,0.70
2018-02-17T05:16:54.113Z,0.70
2018-02-17T05:19:22.928Z,0.60
2018-02-17T05:21:51.285Z,0.70
2018-02-17T05:24:20.062Z,0.70
2018-02-17T05:26:48.405Z,0.60
2018-02-17T05:29:17.332Z,0.60
2018-02-17T05:31:45.660Z,0.60
2018-02-17T05:34:21.639Z,0.60
2018-02-17T05:36:52.505Z,0.60
2018-02-17T05:39:21.310Z,0.60
2018-02-17T05:55:09.256Z,0.40
2018-02-17T05:57:37.613Z,0.30
2018-02-17T06:00:06.722Z,0.40
2018-02-17T06:02:35.141Z,0.30
2018-02-17T06:05:03.477Z,0.40
2018-02-17T06:07:31.940Z,0.40
2018-02-17T06:10:00.302Z,0.40
2018-02-17T06:12:28.662Z,0.40
2018-02-17T06:14:57.001Z,0.40
2018-02-17T06:17:25.383Z,0.40
2018-02-17T06:19:53.729Z,0.40
2018-02-17T06:22:22.865Z,0.40
2018-02-17T06:24:51.197Z,0.40
2018-02-17T06:27:20.334Z,0.40
2018-02-17T06:29:48.704Z,0.40
2018-02-17T06:32:17.544Z,0.50
2018-02-17T06:34:45.880Z,0.50
2018-02-17T06:37:14.258Z,0.50
2018-02-17T06:39:42.592Z,0.50
2018-02-17T06:42:11.689Z,0.60
2018-02-17T06:44:40.037Z,0.50
2018-02-17T06:47:08.396Z,0.60
2018-02-17T06:49:36.740Z,0.60
2018-02-17T06:52:05.145Z,0.70
2018-02-17T06:54:33.469Z,0.70
2018-02-17T06:57:03.328Z,0.70
2018-02-17T06:59:31.700Z,0.70
2018-02-17T07:02:00.029Z,0.70
2018-02-17T07:04:29.170Z,0.80
2018-02-17T07:06:57.556Z,0.80
2018-02-17T07:09:26.173Z,0.90
2018-02-17T07:11:54.525Z,0.90
2018-02-17T07:14:22.961Z,0.90
2018-02-17T07:16:52.068Z,1.00
2018-02-17T07:19:20.402Z,1.00
2018-02-17T07:21:48.779Z,1.10
2018-02-17T07:24:17.116Z,1.20
2018-02-17T07:26:45.445Z,1.20
2018-02-17T07:29:14.607Z,1.40
2018-02-17T07:31:42.941Z,1.40
2018-02-17T07:34:12.079Z,1.60
2018-02-17T07:36:40.440Z,1.50
2018-02-17T07:39:08.798Z,1.60
2018-02-17T07:41:37.889Z,1.80
2018-02-17T07:44:07.014Z,1.90
2018-02-17T07:46:35.355Z,1.80
2018-02-17T07:49:04.778Z,2.00
2018-02-17T07:51:33.940Z,2.10
2018-02-17T07:54:02.272Z,2.00
2018-02-17T07:56:30.625Z,2.20
2018-02-17T07:58:58.968Z,2.20
2018-02-17T08:01:27.322Z,2.30
2018-02-17T08:03:55.656Z,2.30
2018-02-17T08:06:24.026Z,2.40
2018-02-17T08:08:52.356Z,2.50
2018-02-17T08:11:20.685Z,2.60
2018-02-17T08:13:49.038Z,2.70
2018-02-17T08:16:18.139Z,3.00
2018-02-17T08:18:47.269Z,3.10
2018-02-17T08:21:15.626Z,3.10
2018-02-17T08:23:44.733Z,3.40
2018-02-17T08:26:13.101Z,3.40
2018-02-17T08:28:42.201Z,3.60
2018-02-17T08:31:11.304Z,3.70
2018-02-17T08:33:39.669Z,3.60
2018-02-17T08:36:08.770Z,3.90
2018-02-17T08:38:37.125Z,3.80
2018-02-17T08:41:06.227Z,3.90
2018-02-17T08:43:35.365Z,4.00
2018-02-17T08:46:03.721Z,4.10
2018-02-17T08:48:32.074Z,4.10
2018-02-17T08:51:01.173Z,4.30
2018-02-17T08:53:30.292Z,4.30
2018-02-17T08:55:58.628Z,4.30
2018-02-17T08:58:27.026Z,4.40
2018-02-17T09:00:55.402Z,4.40
2018-02-17T09:03:23.745Z,4.50
2018-02-17T09:05:52.073Z,4.50
2018-02-17T09:08:20.457Z,4.50
2018-02-17T09:10:49.604Z,4.60
2018-02-17T09:13:17.972Z,4.70
2018-02-17T09:15:46.313Z,4.80
2018-02-17T09:18:14.669Z,4.90
2018-02-17T09:20:43.765Z,5.00
2018-02-17T09:23:12.884Z,5.10
2018-02-17T09:25:41.241Z,5.10
2018-02-17T09:28:09.829Z,5.20
2018-02-17T09:30:38.200Z,5.30
2018-02-17T09:33:07.314Z,5.30
2018-02-17T09:35:35.669Z,5.30
2018-02-17T09:38:04.039Z,5.30
2018-02-17T09:40:33.156Z,5.30
2018-02-17T09:43:01.492Z,5.30
2018-02-17T09:45:29.869Z,5.30
2018-02-17T09:47:58.448Z,5.40
2018-02-17T09:50:26.801Z,5.50
2018-02-17T09:52:55.122Z,5.50
2018-02-17T09:55:24.242Z,5.70
2018-02-17T09:57:52.584Z,5.60
2018-02-17T10:00:20.929Z,5.80
2018-02-17T10:02:49.241Z,5.90
2018-02-17T10:05:17.590Z,6.00
2018-02-17T10:07:45.933Z,6.20
2018-02-17T10:10:14.282Z,6.30
2018-02-17T10:12:43.421Z,6.40
2018-02-17T10:15:11.793Z,6.30
2018-02-17T10:17:40.130Z,6.40
2018-02-17T10:20:09.257Z,6.50
2018-02-17T10:22:37.621Z,6.50
2018-02-17T10:25:06.009Z,6.60
2018-02-17T10:27:34.345Z,6.60
2018-02-17T10:30:02.729Z,6.60
2018-02-17T10:32:31.066Z,6.60
2018-02-17T10:34:59.425Z,6.70
2018-02-17T10:37:27.791Z,6.90
2018-02-17T10:39:56.129Z,6.90
2018-02-17T10:42:24.482Z,7.00
2018-02-17T10:44:52.833Z,7.10
2018-02-17T10:47:21.205Z,7.10
2018-02-17T10:49:49.550Z,7.20
2018-02-17T10:52:17.901Z,7.20
2018-02-17T10:54:46.276Z,7.20
2018-02-17T10:57:14.666Z,7.30
2018-02-17T10:59:42.989Z,7.40
2018-02-17T11:02:11.359Z,7.50
2018-02-17T11:04:40.476Z,7.80
2018-02-17T11:07:08.831Z,7.80
2018-02-17T11:09:37.956Z,8.00
2018-02-17T11:12:06.300Z,7.90
2018-02-17T11:14:35.434Z,8.00
2018-02-17T11:17:03.808Z,7.90
2018-02-17T11:19:32.173Z,8.10
2018-02-17T11:22:00.567Z,8.20
2018-02-17T11:24:28.924Z,8.20
2018-02-17T11:26:57.275Z,8.20
2018-02-17T11:29:26.437Z,8.20
2018-02-17T11:31:54.776Z,8.10
2018-02-17T11:34:23.157Z,8.10
2018-02-17T11:36:51.485Z,8.00
2018-02-17T11:39:19.833Z,8.00
2018-02-17T11:41:48.165Z,7.90
2018-02-17T11:44:17.279Z,8.00
2018-02-17T11:46:45.621Z,7.90
2018-02-17T11:49:14.753Z,8.10
2018-02-17T11:51:43.132Z,8.00
2018-02-17T11:54:11.493Z,8.10
2018-02-17T11:56:40.610Z,8.20
2018-02-17T11:59:08.945Z,8.20
2018-02-17T12:01:37.293Z,8.30
2018-02-17T12:04:05.641Z,8.20
2018-02-17T12:06:34.016Z,8.20
2018-02-17T12:09:02.382Z,8.20
2018-02-17T12:11:30.760Z,8.20
2018-02-17T12:13:59.093Z,8.30
2018-02-17T12:16:27.458Z,8.40
2018-02-17T12:18:55.837Z,8.40
2018-02-17T12:21:24.170Z,8.40
2018-02-17T12:23:53.460Z,8.10
2018-02-17T12:26:21.953Z,8.10
2018-02-17T12:28:50.306Z,8.00
2018-02-17T12:31:18.653Z,7.90
2018-02-17T12:33:47.101Z,7.90
2018-02-17T12:36:15.819Z,7.80
2018-02-17T12:38:44.317Z,7.80
2018-02-17T12:41:13.442Z,7.80
2018-02-17T12:43:41.822Z,7.70
2018-02-17T12:46:11.081Z,7.80
2018-02-17T12:48:40.105Z,7.80
2018-02-17T12:51:09.192Z,8.00
2018-02-17T12:53:37.661Z,7.90
2018-02-17T12:56:06.270Z,8.00
2018-02-17T12:58:35.409Z,8.00
2018-02-17T13:01:03.769Z,7.90
2018-02-17T13:03:32.168Z,7.90
2018-02-17T13:06:00.529Z,7.90
2018-02-17T13:08:29.012Z,8.00
2018-02-17T13:10:58.376Z,8.00
2018-02-17T13:13:27.687Z,8.10
2018-02-17T13:15:57.105Z,8.20
2018-02-17T13:18:25.769Z,8.20
2018-02-17T13:20:55.101Z,8.40
2018-02-17T13:23:23.616Z,8.30
2018-02-17T13:25:52.671Z,8.40
2018-02-17T13:28:26.814Z,8.40
2018-02-17T13:30:55.508Z,8.30
2018-02-17T13:33:25.792Z,8.40
2018-02-17T13:35:54.137Z,8.40
2018-02-17T13:38:23.560Z,8.30
2018-02-17T13:40:51.945Z,8.30
2018-02-17T13:43:20.298Z,8.20
2018-02-17T13:45:49.390Z,8.00
2018-02-17T13:48:18.510Z,7.90
2018-02-17T13:50:46.864Z,7.90
2018-02-17T13:53:15.987Z,8.00
2018-02-17T13:55:44.301Z,7.90
2018-02-17T13:58:12.688Z,7.90
2018-02-17T14:00:41.026Z,7.90
2018-02-17T14:03:09.364Z,7.90
2018-02-17T14:05:38.566Z,7.90
2018-02-17T14:08:06.921Z,7.80
2018-02-17T14:10:36.069Z,7.70
2018-02-17T14:13:04.401Z,7.70
2018-02-17T14:15:33.531Z,7.60
2018-02-17T14:18:02.610Z,7.60
2018-02-17T14:20:31.733Z,7.60
2018-02-17T14:23:00.066Z,7.50
2018-02-17T14:25:28.413Z,7.50
2018-02-17T14:27:56.749Z,7.50
2018-02-17T14:30:25.094Z,7.30
2018-02-17T14:32:54.210Z,7.10
2018-02-17T14:35:22.573Z,7.10
2018-02-17T14:37:51.698Z,7.00
2018-02-17T14:40:20.076Z,7.00
2018-02-17T14:42:48.441Z,7.00
2018-02-17T14:45:16.761Z,7.00
2018-02-17T14:47:45.137Z,7.00
2018-02-17T14:50:13.465Z,7.00
2018-02-17T14:52:41.832Z,6.90
2018-02-17T14:55:10.153Z,6.90
2018-02-17T14:57:38.505Z,6.80
2018-02-17T15:00:06.884Z,6.70
2018-02-17T15:02:35.260Z,6.70
2018-02-17T15:05:04.405Z,6.60
2018-02-17T15:07:32.732Z,6.60
2018-02-17T15:10:01.867Z,6.80
2018-02-17T15:12:30.230Z,6.80
2018-02-17T15:14:58.613Z,6.90
2018-02-17T15:17:26.956Z,7.00
2018-02-17T15:19:56.112Z,7.20
2018-02-17T15:22:24.441Z,7.10
2018-02-17T15:24:52.792Z,7.10
2018-02-17T15:27:21.933Z,7.10
2018-02-17T15:29:50.265Z,7.10
2018-02-17T15:32:22.494Z,7.10
2018-02-17T15:34:50.842Z,7.00
2018-02-17T15:37:19.625Z,6.80
2018-02-17T15:39:47.985Z,6.80
2018-02-17T15:42:17.105Z,6.70
2018-02-17T15:44:45.455Z,6.70
2018-02-17T15:47:14.577Z,6.80
2018-02-17T15:49:42.917Z,6.70
2018-02-17T15:52:12.042Z,6.60
2018-02-17T15:54:41.444Z,6.60
2018-02-17T15:57:09.788Z,6.60
2018-02-17T15:59:38.965Z,6.60
2018-02-17T16:02:07.304Z,6.50
2018-02-17T16:04:35.675Z,6.50
2018-02-17T16:07:04.005Z,6.50
2018-02-17T16:09:32.364Z,6.50
2018-02-17T16:12:00.698Z,6.50
2018-02-17T16:14:29.821Z,6.40
2018-02-17T16:16:58.266Z,6.30
2018-02-17T16:19:26.662Z,6.30
2018-02-17T16:21:55.521Z,6.30
2018-02-17T16:24:24.005Z,6.30
2018-02-17T16:26:52.391Z,6.10
2018-02-17T16:29:21.588Z,6.00
2018-02-17T16:31:50.721Z,6.00
2018-02-17T16:34:19.105Z,6.00
2018-02-17T16:36:47.469Z,6.00
2018-02-17T16:39:15.815Z,6.00
2018-02-17T16:41:44.196Z,6.00
2018-02-17T16:44:13.309Z,5.90
2018-02-17T16:46:41.770Z,5.90
2018-02-17T16:49:10.128Z,5.90
2018-02-17T16:51:39.581Z,5.90
2018-02-17T16:54:07.933Z,6.00
2018-02-17T16:56:37.462Z,6.00
2018-02-17T16:59:05.801Z,6.00
2018-02-17T17:01:34.119Z,6.00
2018-02-17T17:04:02.513Z,6.00
2018-02-17T17:06:30.848Z,5.90
2018-02-17T17:08:59.972Z,6.00
2018-02-17T17:11:28.357Z,5.90
2018-02-17T17:13:56.725Z,6.00
2018-02-17T17:16:25.073Z,5.90
2018-02-17T17:18:54.222Z,5.90
2018-02-17T17:21:22.553Z,5.80
2018-02-17T17:23:50.925Z,5.90
2018-02-17T17:26:20.029Z,5.70
2018-02-17T17:28:48.409Z,5.70
2018-02-17T17:31:16.753Z,5.70
2018-02-17T17:33:45.118Z,5.70
2018-02-17T17:36:13.436Z,5.70
2018-02-17T17:38:41.772Z,5.70
2018-02-17T17:41:10.193Z,5.70
2018-02-17T17:43:38.521Z,5.60
2018-02-17T17:46:07.132Z,5.60
2018-02-17T17:48:35.806Z,5.60
2018-02-17T17:51:04.188Z,5.60
2018-02-17T17:53:32.524Z,5.60
2018-02-17T17:56:00.873Z,5.70
2018-02-17T17:58:29.993Z,5.60
2018-02-17T18:00:58.336Z,5.60
2018-02-17T18:03:27.957Z,5.70
2018-02-17T18:05:57.045Z,5.70
2018-02-17T18:08:26.181Z,5.70
2018-02-17T18:10:54.521Z,5.60
2018-02-17T18:13:23.658Z,5.70
2018-02-17T18:15:52.044Z,5.60
2018-02-17T18:18:20.380Z,5.70
2018-02-17T18:20:48.730Z,5.60
2018-02-17T18:23:17.860Z,5.50
2018-02-17T18:25:46.186Z,5.50
2018-02-17T18:28:14.592Z,5.50
2018-02-17T18:30:43.685Z,5.40
2018-02-17T18:33:12.794Z,5.40
2018-02-17T18:35:41.149Z,5.40
2018-02-17T18:38:10.261Z,5.40
2018-02-17T18:40:38.905Z,5.40
2018-02-17T18:43:07.242Z,5.40
2018-02-17T18:45:35.730Z,5.40
2018-02-17T18:48:04.054Z,5.30
2018-02-17T18:50:32.478Z,5.40
2018-02-17T18:53:00.832Z,5.30
2018-02-17T18:55:29.418Z,5.30
2018-02-17T18:57:58.237Z,5.30
2018-02-17T19:00:27.017Z,5.30
2018-02-17T19:02:55.377Z,5.30
2018-02-17T19:05:23.705Z,5.30
2018-02-17T19:07:52.067Z,5.30
2018-02-17T19:10:21.313Z,5.30
2018-02-17T19:12:50.445Z,5.30
2018-02-17T19:15:18.785Z,5.30
2018-02-17T19:17:48.013Z,5.30
2018-02-17T19:20:16.392Z,5.30
2018-02-17T19:22:44.770Z,5.30
2018-02-17T19:25:13.125Z,5.40
2018-02-17T19:27:41.470Z,5.30
2018-02-17T19:30:09.816Z,5.20
2018-02-17T19:32:38.170Z,5.20
2018-02-17T19:35:06.529Z,5.10
2018-02-17T19:37:34.884Z,5.10
2018-02-17T19:40:04.337Z,5.10
2018-02-17T19:42:32.653Z,5.00
2018-02-17T19:45:00.984Z,5.10
2018-02-17T19:47:29.365Z,5.10
2018-02-17T19:49:57.721Z,5.10
2018-02-17T19:52:26.159Z,5.10
2018-02-17T19:54:54.573Z,5.10
2018-02-17T19:57:23.673Z,5.10
2018-02-17T19:59:52.798Z,5.20
2018-02-17T20:02:21.134Z,5.10
2018-02-17T20:04:50.273Z,5.20
2018-02-17T20:07:18.604Z,5.10
2018-02-17T20:09:46.961Z,5.20
2018-02-17T20:12:15.280Z,5.20
2018-02-17T20:14:43.885Z,5.20
2018-02-17T20:17:12.297Z,5.30
2018-02-17T20:19:40.629Z,5.30
2018-02-17T20:22:09.000Z,5.30
2018-02-17T20:24:38.105Z,5.30
2018-02-17T20:27:06.448Z,5.20
2018-02-17T20:29:34.758Z,5.30
2018-02-17T20:32:03.104Z,5.30
2018-02-17T20:34:32.197Z,5.30
2018-02-17T20:37:00.645Z,5.30
2018-02-17T20:39:28.984Z,5.30
2018-02-17T20:41:57.368Z,5.30
2018-02-17T20:44:25.711Z,5.40
2018-02-17T20:46:54.113Z,5.40
2018-02-17T20:49:22.457Z,5.40
2018-02-17T20:51:50.824Z,5.40
2018-02-17T20:54:19.249Z,5.40
2018-02-17T20:56:47.573Z,5.40
2018-02-17T20:59:15.929Z,5.40
2018-02-17T21:01:44.300Z,5.40
2018-02-17T21:04:12.824Z,5.40
2018-02-17T21:06:41.162Z,5.40
2018-02-17T21:09:09.533Z,5.40
2018-02-17T21:11:37.924Z,5.30
2018-02-17T21:14:06.605Z,5.20
2018-02-17T21:16:34.932Z,5.30
2018-02-17T21:19:03.289Z,5.30
2018-02-17T21:21:31.622Z,5.30
2018-02-17T21:24:00.005Z,5.30
2018-02-17T21:26:28.391Z,5.30
2018-02-17T21:28:56.783Z,5.30
2018-02-17T21:31:25.136Z,5.30
2018-02-17T21:33:53.470Z,5.30
2018-02-17T21:36:21.838Z,5.30
2018-02-17T21:38:50.179Z,5.30
2018-02-17T21:41:18.541Z,5.30
2018-02-17T21:43:46.883Z,5.30
2018-02-17T21:46:16.019Z,5.40
2018-02-17T21:48:44.378Z,5.40
2018-02-17T21:51:12.913Z,5.40
2018-02-17T21:53:41.266Z,5.40
2018-02-17T21:56:09.657Z,5.40
2018-02-17T21:58:38.041Z,5.40
2018-02-17T22:01:06.375Z,5.40
2018-02-17T22:03:34.759Z,5.40
2018-02-17T22:06:03.109Z,5.40
2018-02-17T22:08:32.257Z,5.40
2018-02-17T22:11:00.581Z,5.40
2018-02-17T22:13:28.962Z,5.50
2018-02-17T22:15:57.321Z,5.50
2018-02-17T22:18:26.465Z,5.50
2018-02-17T22:20:54.806Z,5.40
2018-02-17T22:23:23.192Z,5.50
2018-02-17T22:25:52.289Z,5.40
2018-02-17T22:28:21.397Z,5.40
2018-02-17T22:30:49.757Z,5.30
2018-02-17T22:33:18.182Z,5.30
2018-02-17T22:35:46.646Z,5.20
2018-02-17T22:38:14.989Z,5.30
2018-02-17T22:40:44.121Z,5.30
2018-02-17T22:43:12.453Z,5.30
2018-02-17T22:45:41.593Z,5.40
2018-02-17T22:48:09.909Z,5.30
2018-02-17T22:50:38.252Z,5.30
2018-02-17T22:53:06.692Z,5.20
2018-02-17T22:55:35.077Z,5.30
2018-02-17T22:58:04.180Z,5.30
2018-02-17T23:00:32.553Z,5.20
2018-02-17T23:03:00.917Z,5.30
2018-02-17T23:05:30.065Z,5.30
2018-02-17T23:07:58.401Z,5.30
2018-02-17T23:10:27.498Z,5.30
2018-02-17T23:12:56.645Z,5.20
2018-02-17T23:15:24.981Z,5.20
2018-02-17T23:17:53.370Z,5.10
2018-02-17T23:20:21.730Z,5.10
2018-02-17T23:22:50.860Z,5.10
2018-02-17T23:25:19.193Z,5.00
2018-02-17T23:27:48.421Z,5.00
2018-02-17T23:30:16.874Z,5.00
2018-02-17T23:32:45.262Z,5.00
2018-02-17T23:35:13.597Z,5.00
2018-02-17T23:37:41.992Z,5.00
2018-02-17T23:40:10.333Z,4.90
2018-02-17T23:42:38.661Z,4.90
2018-02-17T23:45:07.789Z,4.80
2018-02-17T23:47:36.865Z,4.80
2018-02-17T23:50:05.229Z,4.80
2018-02-17T23:52:33.592Z,4.90
2018-02-17T23:55:02.752Z,4.90
2018-02-17T23:57:31.089Z,4.90
